createdAt,value
2019-01-18T00:00:19.451Z,79.90
2019-01-18T00:01:19.456Z,80.84
2019-01-18T00:02:19.469Z,80.18
2019-01-18T00:03:19.488Z,79.71
2019-01-18T00:04:19.487Z,80.18
2019-01-18T00:05:19.566Z,79.84
2019-01-18T00:06:19.514Z,79.46
2019-01-18T00:07:19.525Z,78.70
2019-01-18T00:08:19.543Z,78.80
2019-01-18T00:09:19.554Z,79.14
2019-01-18T00:10:19.603Z,79.42
2019-01-18T00:11:19.582Z,79.46
2019-01-18T00:12:19.597Z,79.23
2019-01-18T00:13:19.601Z,79.71
2019-01-18T00:14:19.615Z,80.18
2019-01-18T00:15:19.762Z,79.99
2019-01-18T00:16:19.643Z,80.65
2019-01-18T00:17:19.667Z,80.18
2019-01-18T00:18:19.681Z,80.08
2019-01-18T00:19:19.692Z,80.18
2019-01-18T00:20:19.696Z,79.99
2019-01-18T00:21:19.704Z,79.61
2019-01-18T00:22:19.721Z,80.08
2019-01-18T00:23:19.734Z,80.08
2019-01-18T00:24:19.739Z,80.37
2019-01-18T00:25:19.765Z,79.61
2019-01-18T00:26:19.768Z,79.71
2019-01-18T00:27:19.778Z,79.71
2019-01-18T00:28:19.792Z,79.99
2019-01-18T00:29:19.812Z,80.18
2019-01-18T00:31:19.831Z,80.08
2019-01-18T00:32:19.849Z,80.08
2019-01-18T00:33:19.860Z,80.08
2019-01-18T00:34:19.869Z,79.04
2019-01-18T00:35:19.881Z,79.17
2019-01-18T00:36:19.891Z,79.42
2019-01-18T00:37:19.913Z,79.61
2019-01-18T00:38:19.924Z,79.90
2019-01-18T00:39:19.929Z,79.55
2019-01-18T00:40:19.997Z,78.95
2019-01-18T00:42:19.969Z,79.23
2019-01-18T00:43:19.982Z,79.61
2019-01-18T00:44:20.087Z,79.52
2019-01-18T00:45:20.004Z,79.08
2019-01-18T00:46:20.017Z,78.19
2019-01-18T00:47:20.122Z,78.66
2019-01-18T00:48:20.046Z,78.56
2019-01-18T00:49:20.063Z,78.19
2019-01-18T00:50:41.085Z,78.56
2019-01-18T00:51:20.086Z,78.75
2019-01-18T00:52:20.094Z,79.33
2019-01-18T00:53:20.105Z,79.23
2019-01-18T00:54:20.121Z,79.23
2019-01-18T00:55:20.138Z,79.61
2019-01-18T00:56:20.146Z,79.61
2019-01-18T00:57:20.152Z,79.23
2019-01-18T00:58:20.170Z,79.23
2019-01-18T00:59:20.386Z,78.61
2019-01-18T01:00:20.274Z,78.66
2019-01-18T01:01:20.210Z,78.75
2019-01-18T01:02:20.396Z,78.51
2019-01-18T01:03:20.236Z,77.66
2019-01-18T01:04:20.237Z,77.62
2019-01-18T01:05:20.253Z,77.56
2019-01-18T01:06:20.265Z,78.19
2019-01-18T01:07:20.278Z,77.56
2019-01-18T01:08:20.288Z,77.56
2019-01-18T01:09:20.412Z,77.47
2019-01-18T01:10:20.351Z,77.81
2019-01-18T01:11:20.326Z,77.84
2019-01-18T01:12:20.602Z,77.84
2019-01-18T01:13:20.504Z,77.84
2019-01-18T01:14:20.524Z,77.66
2019-01-18T01:15:20.572Z,77.90
2019-01-18T01:16:20.564Z,77.81
2019-01-18T01:17:20.403Z,78.28
2019-01-18T01:18:20.526Z,78.75
2019-01-18T01:19:20.430Z,78.56
2019-01-18T01:20:20.463Z,79.04
2019-01-18T01:21:20.503Z,78.66
2019-01-18T01:22:20.529Z,78.19
2019-01-18T01:23:20.585Z,78.38
2019-01-18T01:24:20.627Z,77.43
2019-01-18T01:25:20.657Z,78.09
2019-01-18T01:26:20.691Z,78.56
2019-01-18T01:27:20.690Z,77.71
2019-01-18T01:28:20.723Z,77.81
2019-01-18T01:29:20.558Z,78.28
2019-01-18T01:30:20.557Z,78.66
2019-01-18T01:31:20.578Z,79.04
2019-01-18T01:32:20.588Z,78.85
2019-01-18T01:33:20.595Z,78.85
2019-01-18T01:34:20.604Z,79.04
2019-01-18T01:35:20.623Z,77.52
2019-01-18T01:36:20.625Z,77.43
2019-01-18T01:37:20.658Z,78.28
2019-01-18T01:38:20.661Z,78.38
2019-01-18T01:39:20.667Z,78.75
2019-01-18T01:40:20.676Z,78.19
2019-01-18T01:41:20.715Z,78.38
2019-01-18T01:42:20.703Z,78.19
2019-01-18T01:43:20.720Z,79.33
2019-01-18T01:44:20.725Z,79.42
2019-01-18T01:45:20.819Z,78.56
2019-01-18T01:46:20.766Z,78.66
2019-01-18T01:47:20.769Z,78.47
2019-01-18T01:48:20.839Z,78.47
2019-01-18T01:49:20.789Z,78.56
2019-01-18T01:50:20.800Z,79.04
2019-01-18T01:51:20.816Z,79.04
2019-01-18T01:52:20.826Z,79.14
2019-01-18T01:53:20.834Z,79.04
2019-01-18T01:54:20.851Z,78.19
2019-01-18T01:56:20.876Z,78.38
2019-01-18T01:57:20.893Z,78.28
2019-01-18T01:58:20.925Z,78.85
2019-01-18T01:59:20.912Z,78.47
2019-01-18T02:00:20.924Z,78.95
2019-01-18T02:01:20.939Z,78.19
2019-01-18T02:02:20.954Z,77.62
2019-01-18T02:03:20.958Z,77.81
2019-01-18T02:04:20.974Z,77.71
2019-01-18T02:05:21.104Z,77.62
2019-01-18T02:06:21.008Z,77.52
2019-01-18T02:07:21.014Z,77.71
2019-01-18T02:08:21.025Z,77.52
2019-01-18T02:09:21.045Z,78.09
2019-01-18T02:10:21.046Z,78.75
2019-01-18T02:11:21.060Z,78.91
2019-01-18T02:12:21.070Z,79.04
2019-01-18T02:14:21.098Z,78.56
2019-01-18T02:15:21.129Z,79.04
2019-01-18T02:16:21.120Z,79.23
2019-01-18T02:17:21.158Z,78.47
2019-01-18T02:18:21.148Z,78.66
2019-01-18T02:19:21.160Z,79.04
2019-01-18T02:20:21.174Z,78.56
2019-01-18T02:21:21.189Z,78.95
2019-01-18T02:22:21.194Z,79.14
2019-01-18T02:26:21.242Z,78.85
2019-01-18T02:27:21.319Z,77.90
2019-01-18T02:28:21.269Z,78.38
2019-01-18T02:29:21.285Z,78.19
2019-01-18T02:30:21.517Z,78.28
2019-01-18T02:33:21.339Z,78.75
2019-01-18T02:34:21.340Z,78.56
2019-01-18T02:35:21.400Z,79.04
2019-01-18T02:36:21.371Z,79.23
2019-01-18T02:37:21.384Z,79.23
2019-01-18T02:38:21.399Z,79.33
2019-01-18T02:39:21.403Z,79.04
2019-01-18T02:40:21.475Z,79.04
2019-01-18T02:41:21.430Z,79.14
2019-01-18T02:42:21.445Z,79.14
2019-01-18T02:43:21.474Z,79.14
2019-01-18T02:44:21.468Z,79.04
2019-01-18T02:45:21.482Z,78.28
2019-01-18T02:46:21.493Z,78.19
2019-01-18T02:47:21.509Z,78.56
2019-01-18T02:48:21.517Z,78.95
2019-01-18T02:49:21.530Z,79.23
2019-01-18T02:50:21.540Z,79.23
2019-01-18T02:53:21.673Z,78.56
2019-01-18T02:54:21.594Z,78.38
2019-01-18T02:55:28.525Z,78.47
2019-01-18T02:56:21.625Z,78.38
2019-01-18T02:58:21.638Z,78.38
2019-01-18T02:59:21.650Z,79.14
2019-01-18T03:01:21.679Z,79.61
2019-01-18T03:03:21.701Z,79.80
2019-01-18T03:04:21.711Z,79.14
2019-01-18T03:05:21.740Z,79.33
2019-01-18T03:06:21.740Z,79.14
2019-01-18T03:07:21.760Z,79.33
2019-01-18T03:08:21.860Z,79.61
2019-01-18T03:09:21.781Z,79.14
2019-01-18T03:10:21.791Z,79.23
2019-01-18T03:11:21.803Z,79.14
2019-01-18T03:12:21.813Z,79.14
2019-01-18T03:13:21.851Z,79.33
2019-01-18T03:14:21.842Z,79.52
2019-01-18T03:15:21.859Z,79.99
2019-01-18T03:16:21.859Z,80.27
2019-01-18T03:17:21.882Z,79.99
2019-01-18T03:18:21.962Z,80.18
2019-01-18T03:19:21.894Z,80.18
2019-01-18T03:20:21.903Z,79.71
2019-01-18T03:21:21.925Z,79.71
2019-01-18T03:22:21.939Z,79.71
2019-01-18T03:23:21.951Z,79.61
2019-01-18T03:24:21.955Z,79.80
2019-01-18T03:25:21.982Z,79.90
2019-01-18T03:26:21.984Z,80.18
2019-01-18T03:27:22.001Z,79.80
2019-01-18T03:28:22.116Z,80.27
2019-01-18T03:29:22.018Z,80.75
2019-01-18T03:30:22.044Z,80.75
2019-01-18T03:31:22.066Z,80.65
2019-01-18T03:32:22.058Z,80.99
2019-01-18T03:33:22.087Z,80.18
2019-01-18T03:34:22.079Z,79.71
2019-01-18T03:35:22.092Z,79.23
2019-01-18T03:36:22.115Z,79.23
2019-01-18T03:37:22.119Z,79.23
2019-01-18T03:38:22.206Z,78.85
2019-01-18T03:39:22.140Z,78.28
2019-01-18T03:40:22.149Z,78.38
2019-01-18T03:41:22.176Z,78.75
2019-01-18T03:42:22.175Z,79.33
2019-01-18T03:43:22.194Z,79.61
2019-01-18T03:44:22.212Z,79.52
2019-01-18T03:45:22.210Z,79.61
2019-01-18T03:46:22.255Z,79.90
2019-01-18T03:47:22.234Z,79.90
2019-01-18T03:48:22.360Z,79.52
2019-01-18T03:49:22.263Z,79.71
2019-01-18T03:50:22.271Z,79.52
2019-01-18T03:51:22.283Z,79.23
2019-01-18T03:52:22.300Z,79.90
2019-01-18T03:54:22.330Z,79.33
2019-01-18T03:55:22.340Z,79.61
2019-01-18T03:56:22.340Z,79.71
2019-01-18T03:57:22.364Z,79.80
2019-01-18T03:58:22.369Z,80.62
2019-01-18T03:59:22.379Z,80.37
2019-01-18T04:00:26.315Z,80.46
2019-01-18T04:01:22.401Z,80.62
2019-01-18T04:02:22.423Z,80.27
2019-01-18T04:03:22.458Z,80.18
2019-01-18T04:04:22.442Z,80.80
2019-01-18T04:05:22.465Z,80.24
2019-01-18T04:06:22.487Z,80.65
2019-01-18T04:07:22.478Z,80.37
2019-01-18T04:08:22.488Z,79.99
2019-01-18T04:09:22.501Z,79.61
2019-01-18T04:10:22.512Z,79.14
2019-01-18T04:12:22.535Z,79.14
2019-01-18T04:15:22.581Z,79.80
2019-01-18T04:16:22.596Z,80.18
2019-01-18T04:17:22.594Z,80.08
2019-01-18T04:18:22.611Z,80.37
2019-01-18T04:19:22.625Z,80.52
2019-01-18T04:20:22.640Z,80.62
2019-01-18T04:21:22.645Z,80.52
2019-01-18T04:22:22.659Z,80.37
2019-01-18T04:23:22.665Z,80.37
2019-01-18T04:24:22.683Z,80.46
2019-01-18T04:25:22.701Z,80.46
2019-01-18T04:26:22.764Z,79.71
2019-01-18T04:27:22.718Z,79.23
2019-01-18T04:28:22.726Z,79.23
2019-01-18T04:29:22.742Z,79.04
2019-01-18T04:30:22.766Z,79.99
2019-01-18T04:31:22.767Z,80.08
2019-01-18T04:32:22.777Z,79.33
2019-01-18T04:33:22.787Z,79.61
2019-01-18T04:34:22.806Z,80.90
2019-01-18T04:35:22.815Z,80.90
2019-01-18T04:36:22.924Z,80.56
2019-01-18T04:37:22.841Z,80.65
2019-01-18T04:38:22.848Z,80.94
2019-01-18T04:40:22.924Z,79.90
2019-01-18T04:41:22.887Z,79.90
2019-01-18T04:42:22.902Z,79.99
2019-01-18T04:43:22.910Z,80.08
2019-01-18T04:44:22.918Z,80.18
2019-01-18T04:45:22.936Z,80.18
2019-01-18T04:46:22.952Z,80.62
2019-01-18T04:47:22.956Z,81.27
2019-01-18T04:48:22.974Z,81.18
2019-01-18T04:49:22.982Z,80.99
2019-01-18T04:50:23.001Z,80.56
2019-01-18T04:51:23.020Z,80.08
2019-01-18T04:52:23.021Z,80.33
2019-01-18T04:53:23.034Z,80.99
2019-01-18T04:54:23.040Z,80.99
2019-01-18T04:55:23.055Z,80.99
2019-01-18T04:56:23.081Z,80.71
2019-01-18T04:57:23.075Z,80.99
2019-01-18T04:58:23.088Z,80.56
2019-01-18T04:59:23.103Z,80.27
2019-01-18T05:00:23.120Z,81.13
2019-01-18T05:01:23.233Z,80.99
2019-01-18T05:02:23.138Z,80.99
2019-01-18T05:03:23.150Z,80.99
2019-01-18T05:04:23.159Z,80.90
2019-01-18T05:05:23.172Z,81.18
2019-01-18T05:06:23.182Z,81.66
2019-01-18T05:07:23.197Z,81.18
2019-01-18T05:08:23.206Z,81.47
2019-01-18T05:09:23.221Z,80.71
2019-01-18T05:10:23.229Z,81.27
2019-01-18T05:11:23.341Z,81.09
2019-01-18T05:12:23.253Z,81.27
2019-01-18T05:13:23.267Z,80.84
2019-01-18T05:14:23.292Z,80.56
2019-01-18T05:15:23.289Z,80.08
2019-01-18T05:16:23.310Z,80.80
2019-01-18T05:17:23.311Z,80.52
2019-01-18T05:18:23.325Z,80.71
2019-01-18T05:19:23.347Z,80.52
2019-01-18T05:20:23.356Z,80.62
2019-01-18T05:21:23.454Z,81.37
2019-01-18T05:22:23.386Z,81.13
2019-01-18T05:23:23.482Z,80.65
2019-01-18T05:24:23.403Z,80.56
2019-01-18T05:25:23.458Z,80.75
2019-01-18T05:26:23.419Z,80.52
2019-01-18T05:27:23.442Z,80.52
2019-01-18T05:28:23.444Z,81.37
2019-01-18T05:29:23.457Z,80.90
2019-01-18T05:30:23.471Z,81.37
2019-01-18T05:31:23.482Z,81.09
2019-01-18T05:32:23.495Z,81.41
2019-01-18T05:34:23.520Z,81.09
2019-01-18T05:35:23.657Z,80.80
2019-01-18T05:36:23.541Z,80.90
2019-01-18T05:37:23.566Z,81.18
2019-01-18T05:38:23.583Z,80.99
2019-01-18T05:39:23.577Z,81.47
2019-01-18T05:40:23.595Z,81.85
2019-01-18T05:41:23.603Z,81.94
2019-01-18T05:42:23.617Z,82.23
2019-01-18T05:43:23.627Z,81.56
2019-01-18T05:45:23.782Z,81.85
2019-01-18T05:46:23.663Z,81.18
2019-01-18T05:47:23.697Z,81.09
2019-01-18T05:48:23.687Z,81.56
2019-01-18T05:49:23.704Z,81.18
2019-01-18T05:50:23.711Z,81.23
2019-01-18T05:52:23.740Z,82.04
2019-01-18T05:53:23.751Z,81.27
2019-01-18T05:54:23.763Z,81.56
2019-01-18T05:55:23.862Z,81.94
2019-01-18T05:56:23.785Z,82.32
2019-01-18T05:57:23.794Z,82.04
2019-01-18T05:58:23.807Z,81.94
2019-01-18T05:59:23.821Z,81.32
2019-01-18T06:00:23.835Z,80.94
2019-01-18T06:01:24.024Z,81.13
2019-01-18T06:02:23.859Z,80.37
2019-01-18T06:03:23.870Z,80.65
2019-01-18T06:04:23.888Z,80.56
2019-01-18T06:05:23.892Z,80.37
2019-01-18T06:06:23.914Z,80.37
2019-01-18T06:07:23.928Z,80.71
2019-01-18T06:08:23.939Z,81.27
2019-01-18T06:09:23.942Z,80.80
2019-01-18T06:10:24.072Z,80.71
2019-01-18T06:12:23.981Z,80.71
2019-01-18T06:13:23.992Z,80.56
2019-01-18T06:14:24.008Z,80.56
2019-01-18T06:15:24.019Z,80.43
2019-01-18T06:16:24.030Z,80.84
2019-01-18T06:18:24.065Z,80.65
2019-01-18T06:19:24.066Z,80.08
2019-01-18T06:20:24.193Z,80.33
2019-01-18T06:21:24.090Z,80.24
2019-01-18T06:22:24.102Z,80.80
2019-01-18T06:24:24.129Z,80.56
2019-01-18T06:25:24.161Z,80.24
2019-01-18T06:26:24.159Z,80.52
2019-01-18T06:27:24.167Z,80.27
2019-01-18T06:28:24.210Z,81.23
2019-01-18T06:29:24.187Z,81.85
2019-01-18T06:30:24.247Z,81.66
2019-01-18T06:31:24.213Z,81.13
2019-01-18T06:32:24.223Z,80.84
2019-01-18T06:33:24.249Z,81.04
2019-01-18T06:34:24.250Z,81.09
2019-01-18T06:35:24.259Z,81.04
2019-01-18T06:37:24.281Z,80.56
2019-01-18T06:38:24.296Z,80.75
2019-01-18T06:39:24.307Z,80.46
2019-01-18T06:40:24.335Z,80.27
2019-01-18T06:41:24.338Z,80.27
2019-01-18T06:42:24.340Z,79.99
2019-01-18T06:43:24.354Z,80.46
2019-01-18T06:44:24.374Z,80.37
2019-01-18T06:45:24.404Z,80.65
2019-01-18T06:46:24.396Z,81.13
2019-01-18T06:47:24.424Z,80.08
2019-01-18T06:48:24.420Z,80.43
2019-01-18T06:49:24.425Z,80.99
2019-01-18T06:50:24.443Z,80.94
2019-01-18T06:51:24.457Z,80.46
2019-01-18T06:52:24.482Z,80.08
2019-01-18T06:53:24.472Z,80.65
2019-01-18T06:54:24.484Z,80.99
2019-01-18T06:55:24.644Z,81.47
2019-01-18T06:56:24.513Z,80.84
2019-01-18T06:57:24.523Z,80.90
2019-01-18T06:58:24.534Z,80.90
2019-01-18T06:59:24.547Z,81.09
2019-01-18T07:00:24.562Z,81.41
2019-01-18T07:01:24.577Z,80.56
2019-01-18T07:02:24.589Z,80.56
2019-01-18T07:03:24.605Z,81.18
2019-01-18T07:04:24.609Z,81.75
2019-01-18T07:05:24.691Z,81.85
2019-01-18T07:07:24.653Z,81.98
2019-01-18T07:08:24.660Z,81.70
2019-01-18T07:10:24.680Z,81.32
2019-01-18T07:11:24.695Z,81.41
2019-01-18T07:12:24.769Z,81.37
2019-01-18T07:13:24.721Z,81.27
2019-01-18T07:14:24.734Z,81.75
2019-01-18T07:15:24.755Z,81.88
2019-01-18T07:16:24.761Z,81.37
2019-01-18T07:17:24.773Z,81.60
2019-01-18T07:18:24.778Z,81.60
2019-01-18T07:19:24.793Z,81.47
2019-01-18T07:20:24.811Z,81.51
2019-01-18T07:21:24.816Z,81.41
2019-01-18T07:22:24.841Z,81.51
2019-01-18T07:23:24.842Z,81.75
2019-01-18T07:24:24.849Z,81.70
2019-01-18T07:25:24.865Z,81.88
2019-01-18T07:26:24.880Z,81.79
2019-01-18T07:27:24.889Z,81.70
2019-01-18T07:28:24.901Z,81.79
2019-01-18T07:29:24.921Z,81.79
2019-01-18T07:30:24.940Z,81.88
2019-01-18T07:31:24.939Z,81.88
2019-01-18T07:32:25.111Z,82.46
2019-01-18T07:33:24.958Z,81.88
2019-01-18T07:34:24.973Z,81.70
2019-01-18T07:35:25.014Z,81.79
2019-01-18T07:36:24.999Z,81.70
2019-01-18T07:37:25.006Z,80.84
2019-01-18T07:38:25.020Z,81.04
2019-01-18T07:39:25.031Z,81.79
2019-01-18T07:40:26.161Z,82.17
2019-01-18T07:41:25.056Z,81.98
2019-01-18T07:42:25.062Z,82.27
2019-01-18T07:43:25.077Z,82.17
2019-01-18T07:44:25.102Z,81.88
2019-01-18T07:45:25.109Z,81.94
2019-01-18T07:46:25.130Z,81.98
2019-01-18T07:47:25.153Z,81.88
2019-01-18T07:48:25.140Z,81.70
2019-01-18T07:49:25.171Z,81.23
2019-01-18T07:50:25.162Z,81.51
2019-01-18T07:51:25.198Z,81.88
2019-01-18T07:52:25.185Z,82.08
2019-01-18T07:53:25.201Z,82.08
2019-01-18T07:54:25.219Z,82.13
2019-01-18T07:55:25.275Z,82.32
2019-01-18T07:56:25.236Z,82.55
2019-01-18T07:57:25.259Z,82.32
2019-01-18T07:58:25.264Z,82.51
2019-01-18T08:00:25.318Z,82.55
2019-01-18T08:01:25.310Z,82.17
2019-01-18T08:02:25.312Z,82.17
2019-01-18T08:03:25.323Z,81.98
2019-01-18T08:04:25.338Z,82.36
2019-01-18T08:05:25.347Z,82.17
2019-01-18T08:06:25.364Z,82.42
2019-01-18T08:07:25.366Z,82.98
2019-01-18T08:08:25.379Z,82.89
2019-01-18T08:09:25.393Z,82.36
2019-01-18T08:10:25.506Z,82.60
2019-01-18T08:11:25.416Z,82.89
2019-01-18T08:12:25.428Z,82.36
2019-01-18T08:13:25.441Z,82.08
2019-01-18T08:14:25.453Z,81.88
2019-01-18T08:15:25.466Z,81.60
2019-01-18T08:16:25.480Z,81.88
2019-01-18T08:17:25.489Z,81.88
2019-01-18T08:18:25.541Z,82.36
2019-01-18T08:20:25.578Z,82.46
2019-01-18T08:21:25.539Z,82.55
2019-01-18T08:22:25.564Z,82.27
2019-01-18T08:23:25.573Z,82.36
2019-01-18T08:24:25.576Z,82.65
2019-01-18T08:25:25.591Z,83.31
2019-01-18T08:26:25.597Z,83.12
2019-01-18T08:27:25.616Z,82.98
2019-01-18T08:28:25.624Z,83.78
2019-01-18T08:29:25.647Z,83.12
2019-01-18T08:30:25.769Z,83.03
2019-01-18T08:31:29.095Z,82.84
2019-01-18T08:32:25.682Z,83.12
2019-01-18T08:33:25.684Z,82.98
2019-01-18T08:34:25.700Z,83.50
2019-01-18T08:35:25.719Z,83.40
2019-01-18T08:36:25.737Z,83.12
2019-01-18T08:37:25.747Z,83.12
2019-01-18T08:38:25.748Z,83.40
2019-01-18T08:39:25.763Z,83.65
2019-01-18T08:40:25.920Z,83.94
2019-01-18T08:41:25.782Z,83.78
2019-01-18T08:42:25.795Z,83.78
2019-01-18T08:43:25.861Z,83.22
2019-01-18T08:44:25.831Z,82.65
2019-01-18T08:45:25.840Z,82.65
2019-01-18T08:46:25.850Z,83.31
2019-01-18T08:47:25.856Z,83.12
2019-01-18T08:48:25.872Z,83.69
2019-01-18T08:49:25.878Z,83.78
2019-01-18T08:50:25.895Z,83.40
2019-01-18T08:51:25.913Z,83.50
2019-01-18T08:52:25.924Z,82.65
2019-01-18T08:53:25.928Z,82.55
2019-01-18T08:54:25.941Z,82.17
2019-01-18T08:55:26.008Z,81.88
2019-01-18T08:56:25.965Z,82.27
2019-01-18T08:57:25.976Z,81.88
2019-01-18T08:58:26.007Z,81.88
2019-01-18T08:59:26.018Z,81.88
2019-01-18T09:01:26.026Z,82.46
2019-01-18T09:02:26.041Z,82.27
2019-01-18T09:03:26.059Z,82.27
2019-01-18T09:04:26.060Z,81.55
2019-01-18T09:05:26.265Z,81.36
2019-01-18T09:06:26.094Z,81.51
2019-01-18T09:07:26.101Z,81.55
2019-01-18T09:08:26.108Z,81.79
2019-01-18T09:09:26.124Z,81.26
2019-01-18T09:10:26.137Z,81.26
2019-01-18T09:11:26.163Z,81.17
2019-01-18T09:12:26.158Z,81.07
2019-01-18T09:13:26.191Z,80.69
2019-01-18T09:14:26.212Z,80.41
2019-01-18T09:15:26.313Z,80.79
2019-01-18T09:16:26.213Z,80.60
2019-01-18T09:17:26.248Z,79.74
2019-01-18T09:18:26.241Z,79.74
2019-01-18T09:20:26.265Z,79.08
2019-01-18T09:21:26.277Z,78.93
2019-01-18T09:22:26.304Z,78.27
2019-01-18T09:23:26.304Z,77.89
2019-01-18T09:24:26.322Z,77.89
2019-01-18T09:25:26.374Z,77.51
2019-01-18T09:26:26.346Z,78.27
2019-01-18T09:27:26.368Z,77.51
2019-01-18T09:28:26.371Z,78.13
2019-01-18T09:29:26.395Z,78.74
2019-01-18T09:30:26.402Z,78.45
2019-01-18T09:31:26.430Z,77.31
2019-01-18T09:32:26.436Z,78.27
2019-01-18T09:33:26.441Z,77.12
2019-01-18T09:34:26.459Z,76.93
2019-01-18T09:35:26.594Z,77.41
2019-01-18T09:36:26.482Z,77.51
2019-01-18T09:37:26.494Z,77.70
2019-01-18T09:38:26.513Z,78.17
2019-01-18T09:39:26.533Z,78.27
2019-01-18T09:41:26.552Z,78.42
2019-01-18T09:42:26.568Z,78.70
2019-01-18T09:43:26.590Z,79.08
2019-01-18T09:44:26.588Z,78.89
2019-01-18T09:45:26.603Z,78.51
2019-01-18T09:46:26.620Z,78.23
2019-01-18T09:47:26.639Z,77.89
2019-01-18T09:48:26.647Z,77.79
2019-01-18T09:49:26.659Z,77.79
2019-01-18T09:52:26.703Z,76.46
2019-01-18T09:53:26.716Z,76.69
2019-01-18T09:54:26.735Z,76.56
2019-01-18T09:55:26.757Z,76.65
2019-01-18T09:56:26.758Z,76.65
2019-01-18T09:57:26.772Z,77.12
2019-01-18T09:58:26.783Z,77.12
2019-01-18T09:59:26.822Z,77.41
2019-01-18T10:00:26.907Z,77.31
2019-01-18T10:01:26.839Z,76.75
2019-01-18T10:02:26.841Z,76.84
2019-01-18T10:03:26.856Z,76.97
2019-01-18T10:04:26.879Z,76.03
2019-01-18T10:05:26.892Z,75.60
2019-01-18T10:06:26.903Z,76.08
2019-01-18T10:07:26.911Z,75.70
2019-01-18T10:08:26.942Z,75.42
2019-01-18T10:09:26.939Z,75.79
2019-01-18T10:10:27.047Z,75.99
2019-01-18T10:11:26.972Z,76.37
2019-01-18T10:12:26.990Z,75.89
2019-01-18T10:13:26.999Z,75.55
2019-01-18T10:14:27.014Z,74.03
2019-01-18T10:16:27.040Z,73.84
2019-01-18T10:17:27.058Z,73.36
2019-01-18T10:18:27.079Z,73.36
2019-01-18T10:19:27.103Z,73.21
2019-01-18T10:20:27.204Z,72.55
2019-01-18T10:21:27.109Z,72.16
2019-01-18T10:22:27.130Z,72.41
2019-01-18T10:23:27.142Z,72.26
2019-01-18T10:24:27.160Z,71.12
2019-01-18T10:25:27.171Z,69.44
2019-01-18T10:26:27.202Z,69.00
2019-01-18T10:27:27.225Z,68.05
2019-01-18T10:28:27.216Z,68.33
2019-01-18T10:29:28.208Z,67.57
2019-01-18T10:30:27.368Z,67.47
2019-01-18T10:31:27.269Z,68.01
2019-01-18T10:32:27.281Z,68.59
2019-01-18T10:33:27.295Z,69.15
2019-01-18T10:34:27.315Z,68.59
2019-01-18T10:35:27.326Z,68.68
2019-01-18T10:36:27.350Z,68.84
2019-01-18T10:37:27.360Z,70.07
2019-01-18T10:38:27.375Z,70.61
2019-01-18T10:39:27.407Z,71.08
2019-01-18T10:40:27.403Z,71.75
2019-01-18T10:41:27.418Z,72.13
2019-01-18T10:42:27.434Z,72.22
2019-01-18T10:43:27.468Z,72.22
2019-01-18T10:44:27.465Z,71.75
2019-01-18T10:45:27.501Z,72.41
2019-01-18T10:46:27.515Z,71.41
2019-01-18T10:47:27.515Z,70.10
2019-01-18T10:48:27.528Z,69.25
2019-01-18T10:49:27.545Z,68.96
2019-01-18T10:50:27.567Z,68.59
2019-01-18T10:51:27.576Z,68.59
2019-01-18T10:52:27.598Z,68.27
2019-01-18T10:53:27.608Z,68.74
2019-01-18T10:54:27.624Z,69.02
2019-01-18T10:55:27.639Z,68.68
2019-01-18T10:56:27.646Z,67.57
2019-01-18T10:57:27.668Z,66.53
2019-01-18T10:58:27.695Z,65.58
2019-01-18T10:59:27.716Z,65.83
2019-01-18T11:00:27.710Z,67.07
2019-01-18T11:01:27.736Z,68.07
2019-01-18T11:02:27.743Z,69.75
2019-01-18T11:03:27.755Z,70.51
2019-01-18T11:04:27.774Z,70.07
2019-01-18T11:05:27.787Z,68.65
2019-01-18T11:06:27.800Z,69.21
2019-01-18T11:07:27.818Z,69.50
2019-01-18T11:08:27.897Z,70.79
2019-01-18T11:09:27.869Z,70.74
2019-01-18T11:10:27.885Z,70.23
2019-01-18T11:11:27.890Z,69.66
2019-01-18T11:12:27.892Z,69.27
2019-01-18T11:13:27.908Z,69.27
2019-01-18T11:14:27.931Z,69.37
2019-01-18T11:15:27.970Z,69.66
2019-01-18T11:16:27.955Z,70.70
2019-01-18T11:17:27.969Z,70.42
2019-01-18T11:18:27.986Z,70.45
2019-01-18T11:19:28.013Z,68.24
2019-01-18T11:20:28.009Z,65.03
2019-01-18T11:21:28.027Z,62.85
2019-01-18T11:22:28.042Z,63.96
2019-01-18T11:23:28.062Z,65.64
2019-01-18T11:24:28.068Z,67.03
2019-01-18T11:25:31.864Z,68.17
2019-01-18T11:26:28.095Z,68.36
2019-01-18T11:27:28.110Z,66.68
2019-01-18T11:28:28.135Z,64.31
2019-01-18T11:29:28.139Z,60.17
2019-01-18T11:30:28.159Z,56.96
2019-01-18T11:31:28.165Z,54.70
2019-01-18T11:32:28.185Z,53.77
2019-01-18T11:33:28.196Z,52.62
2019-01-18T11:34:28.214Z,53.65
2019-01-18T11:35:28.235Z,54.74
2019-01-18T11:36:28.245Z,57.07
2019-01-18T11:37:28.297Z,59.61
2019-01-18T11:38:28.284Z,61.51
2019-01-18T11:39:28.289Z,61.61
2019-01-18T11:40:28.337Z,61.61
2019-01-18T11:41:28.327Z,61.67
2019-01-18T11:42:28.377Z,61.67
2019-01-18T11:43:28.344Z,61.67
2019-01-18T11:44:28.362Z,61.29
2019-01-18T11:45:28.393Z,61.58
2019-01-18T11:46:28.387Z,61.38
2019-01-18T11:47:28.476Z,62.21
2019-01-18T11:48:28.426Z,62.40
2019-01-18T11:49:28.436Z,63.17
2019-01-18T11:50:28.472Z,63.54
2019-01-18T11:51:28.473Z,63.07
2019-01-18T11:52:28.495Z,63.64
2019-01-18T11:53:28.493Z,62.97
2019-01-18T11:54:28.518Z,63.26
2019-01-18T11:55:28.522Z,63.99
2019-01-18T11:56:28.547Z,63.89
2019-01-18T11:57:28.559Z,64.18
2019-01-18T11:58:28.568Z,64.27
2019-01-18T11:59:28.592Z,64.65
2019-01-18T12:00:28.616Z,64.27
2019-01-18T12:01:28.616Z,65.03
2019-01-18T12:02:28.631Z,65.51
2019-01-18T12:03:28.644Z,66.14
2019-01-18T12:04:28.657Z,66.14
2019-01-18T12:05:28.695Z,66.14
2019-01-18T12:06:28.690Z,65.47
2019-01-18T12:07:28.766Z,66.24
2019-01-18T12:08:28.712Z,66.05
2019-01-18T12:09:28.725Z,65.86
2019-01-18T12:10:28.742Z,65.95
2019-01-18T12:11:30.222Z,66.71
2019-01-18T12:12:28.776Z,67.00
2019-01-18T12:13:28.797Z,66.14
2019-01-18T12:14:28.801Z,66.52
2019-01-18T12:15:28.811Z,66.80
2019-01-18T12:16:28.830Z,66.61
2019-01-18T12:17:28.896Z,66.05
2019-01-18T12:18:28.858Z,66.14
2019-01-18T12:20:28.880Z,65.57
2019-01-18T12:21:28.900Z,65.76
2019-01-18T12:23:28.928Z,66.08
2019-01-18T12:24:28.943Z,66.36
2019-01-18T12:26:28.970Z,64.94
2019-01-18T12:27:28.983Z,64.56
2019-01-18T12:28:28.996Z,64.56
2019-01-18T12:29:29.011Z,65.38
2019-01-18T12:30:29.026Z,65.86
2019-01-18T12:31:29.043Z,66.14
2019-01-18T12:32:29.165Z,65.70
2019-01-18T12:33:29.071Z,66.05
2019-01-18T12:34:29.085Z,65.60
2019-01-18T12:35:29.093Z,65.32
2019-01-18T12:36:29.115Z,64.37
2019-01-18T12:37:29.124Z,64.08
2019-01-18T12:38:29.144Z,63.32
2019-01-18T12:39:29.150Z,62.97
2019-01-18T12:40:29.165Z,62.69
2019-01-18T12:42:29.203Z,62.40
2019-01-18T12:43:29.212Z,62.49
2019-01-18T12:44:29.222Z,62.97
2019-01-18T12:45:29.238Z,62.12
2019-01-18T12:46:29.264Z,62.69
2019-01-18T12:47:29.272Z,62.78
2019-01-18T12:48:29.283Z,61.64
2019-01-18T12:49:29.304Z,60.78
2019-01-18T12:50:29.323Z,60.78
2019-01-18T12:51:29.350Z,61.26
2019-01-18T12:52:29.436Z,61.48
2019-01-18T12:53:29.521Z,60.88
2019-01-18T12:54:29.371Z,60.50
2019-01-18T12:55:29.393Z,60.63
2019-01-18T12:56:29.400Z,60.91
2019-01-18T12:57:29.414Z,60.91
2019-01-18T12:58:29.427Z,60.82
2019-01-18T12:59:29.443Z,60.24
2019-01-18T13:00:29.456Z,60.34
2019-01-18T13:01:29.493Z,60.41
2019-01-18T13:02:35.163Z,61.35
2019-01-18T13:03:29.504Z,62.30
2019-01-18T13:04:29.518Z,61.48
2019-01-18T13:05:29.548Z,61.64
2019-01-18T13:06:29.559Z,61.19
2019-01-18T13:07:29.563Z,61.45
2019-01-18T13:09:29.591Z,61.26
2019-01-18T13:10:29.612Z,61.93
2019-01-18T13:11:29.624Z,62.21
2019-01-18T13:12:29.636Z,62.88
2019-01-18T13:13:29.653Z,63.54
2019-01-18T13:14:29.665Z,64.02
2019-01-18T13:15:29.686Z,64.24
2019-01-18T13:16:29.701Z,63.86
2019-01-18T13:17:29.741Z,63.57
2019-01-18T13:18:29.725Z,63.29
2019-01-18T13:19:29.747Z,63.86
2019-01-18T13:20:29.759Z,63.35
2019-01-18T13:21:29.768Z,63.26
2019-01-18T13:22:29.792Z,63.26
2019-01-18T13:23:29.801Z,63.20
2019-01-18T13:24:29.813Z,62.59
2019-01-18T13:25:29.831Z,62.91
2019-01-18T13:26:29.841Z,62.30
2019-01-18T13:27:29.913Z,62.78
2019-01-18T13:28:29.867Z,63.92
2019-01-18T13:29:29.891Z,63.35
2019-01-18T13:30:29.903Z,63.54
2019-01-18T13:31:29.918Z,63.45
2019-01-18T13:32:29.947Z,63.26
2019-01-18T13:33:29.942Z,63.64